ESMQ

Kalmar Airport

Sweden
METAR ESMQ 220620Z AUTO 35007KT 9999 NCD 09/04 Q1015
Observed Flight Rules
Apr-22 @ 06:20 UTC (36 minutes ago) Visual Flight Rules
Wind Visibility Clouds
350° at 7 knots 10,000+ meters
  • Clear skies
Temperatures Readings
Current 9°C / 48°F
Dewpoint 4°C / 39°F
Humidity 71%
Altimeter 29.97" Hg
Pressure 1015 hPa
Elevation 16
METAR ESMQ 220620Z AUTO 35007KT 9999 NCD 09/04 Q1015
Observed Flight Rules
Apr-22 @ 06:20 UTC
(36 minutes ago)
VFR
Wind Visibility
350° at 7 knots 10,000+ meters
Clouds
  • Clear skies
Temperature Dewpoint
9°C / 48°F 4°C / 39°F
Humidity Altimeter Pressure
71% 29.97" Hg 1015 hPa